sensor_id;sensor_type;location;lat;lon;timestamp;P1;durP1;ratioP1;P2;durP2;ratioP2
6031;SDS011;3044;43.232;27.972;2022-10-16T00:01:32;11.60;;;8.40;;
6031;SDS011;3044;43.232;27.972;2022-10-16T00:04:01;17.93;;;8.00;;
6031;SDS011;3044;43.232;27.972;2022-10-16T00:06:29;8.50;;;7.50;;
6031;SDS011;3044;43.232;27.972;2022-10-16T00:08:57;17.40;;;7.53;;
6031;SDS011;3044;43.232;27.972;2022-10-16T00:11:25;13.93;;;7.90;;
6031;SDS011;3044;43.232;27.972;2022-10-16T00:13:54;11.70;;;7.97;;
6031;SDS011;3044;43.232;27.972;2022-10-16T00:16:23;16.63;;;7.63;;
6031;SDS011;3044;43.232;27.972;2022-10-16T00:18:51;10.57;;;7.50;;
6031;SDS011;3044;43.232;27.972;2022-10-16T00:21:20;10.20;;;6.63;;
6031;SDS011;3044;43.232;27.972;2022-10-16T00:23:50;12.43;;;7.50;;
6031;SDS011;3044;43.232;27.972;2022-10-16T00:26:18;12.73;;;7.50;;
6031;SDS011;3044;43.232;27.972;2022-10-16T00:28:45;10.10;;;7.63;;
6031;SDS011;3044;43.232;27.972;2022-10-16T00:31:13;8.50;;;6.90;;
6031;SDS011;3044;43.232;27.972;2022-10-16T00:33:40;7.70;;;6.93;;
6031;SDS011;3044;43.232;27.972;2022-10-16T00:36:09;9.20;;;7.13;;
6031;SDS011;3044;43.232;27.972;2022-10-16T00:38:39;12.83;;;6.63;;
6031;SDS011;3044;43.232;27.972;2022-10-16T00:41:07;8.43;;;6.53;;
6031;SDS011;3044;43.232;27.972;2022-10-16T00:43:39;8.33;;;7.00;;
6031;SDS011;3044;43.232;27.972;2022-10-16T00:46:19;7.00;;;5.70;;
6031;SDS011;3044;43.232;27.972;2022-10-16T00:48:49;15.47;;;6.70;;
6031;SDS011;3044;43.232;27.972;2022-10-16T00:51:19;12.33;;;8.40;;
6031;SDS011;3044;43.232;27.972;2022-10-16T00:53:53;10.00;;;7.40;;
6031;SDS011;3044;43.232;27.972;2022-10-16T00:56:22;8.33;;;7.07;;
6031;SDS011;3044;43.232;27.972;2022-10-16T00:58:49;7.30;;;6.60;;
6031;SDS011;3044;43.232;27.972;2022-10-16T01:01:17;10.53;;;7.23;;
6031;SDS011;3044;43.232;27.972;2022-10-16T01:03:44;8.43;;;6.73;;
6031;SDS011;3044;43.232;27.972;2022-10-16T01:09:08;11.03;;;6.40;;
6031;SDS011;3044;43.232;27.972;2022-10-16T01:11:42;12.17;;;7.60;;
6031;SDS011;3044;43.232;27.972;2022-10-16T01:14:19;11.80;;;6.73;;
6031;SDS011;3044;43.232;27.972;2022-10-16T01:16:49;18.83;;;7.70;;
6031;SDS011;3044;43.232;27.972;2022-10-16T01:19:25;10.33;;;5.73;;
6031;SDS011;3044;43.232;27.972;2022-10-16T01:22:06;12.93;;;7.60;;
6031;SDS011;3044;43.232;27.972;2022-10-16T01:24:39;10.67;;;6.40;;
6031;SDS011;3044;43.232;27.972;2022-10-16T01:27:10;11.93;;;7.10;;
6031;SDS011;3044;43.232;27.972;2022-10-16T01:29:42;8.23;;;6.43;;
6031;SDS011;3044;43.232;27.972;2022-10-16T01:32:16;12.17;;;5.53;;
6031;SDS011;3044;43.232;27.972;2022-10-16T01:34:48;10.13;;;5.40;;
6031;SDS011;3044;43.232;27.972;2022-10-16T01:37:29;8.60;;;5.73;;
6031;SDS011;3044;43.232;27.972;2022-10-16T01:40:03;7.17;;;6.40;;
6031;SDS011;3044;43.232;27.972;2022-10-16T01:42:36;11.03;;;6.20;;
6031;SDS011;3044;43.232;27.972;2022-10-16T01:45:05;8.63;;;5.93;;
6031;SDS011;3044;43.232;27.972;2022-10-16T01:47:36;6.50;;;5.60;;
6031;SDS011;3044;43.232;27.972;2022-10-16T01:50:06;9.17;;;6.00;;
6031;SDS011;3044;43.232;27.972;2022-10-16T01:52:36;16.13;;;6.00;;
6031;SDS011;3044;43.232;27.972;2022-10-16T01:55:06;6.70;;;5.50;;
6031;SDS011;3044;43.232;27.972;2022-10-16T01:57:38;9.37;;;5.13;;
6031;SDS011;3044;43.232;27.972;2022-10-16T02:00:10;5.77;;;5.17;;
6031;SDS011;3044;43.232;27.972;2022-10-16T02:02:40;10.23;;;5.83;;
6031;SDS011;3044;43.232;27.972;2022-10-16T02:05:12;5.27;;;4.77;;
6031;SDS011;3044;43.232;27.972;2022-10-16T02:07:46;14.73;;;5.87;;
6031;SDS011;3044;43.232;27.972;2022-10-16T02:10:14;7.27;;;5.10;;
6031;SDS011;3044;43.232;27.972;2022-10-16T02:12:44;5.07;;;4.50;;
6031;SDS011;3044;43.232;27.972;2022-10-16T02:15:16;4.27;;;3.70;;
6031;SDS011;3044;43.232;27.972;2022-10-16T02:17:43;6.73;;;4.57;;
6031;SDS011;3044;43.232;27.972;2022-10-16T02:20:10;11.97;;;4.17;;
6031;SDS011;3044;43.232;27.972;2022-10-16T02:22:38;7.83;;;3.83;;
6031;SDS011;3044;43.232;27.972;2022-10-16T02:25:08;5.43;;;4.40;;
6031;SDS011;3044;43.232;27.972;2022-10-16T02:27:42;6.93;;;3.67;;
6031;SDS011;3044;43.232;27.972;2022-10-16T02:30:19;6.67;;;4.33;;
6031;SDS011;3044;43.232;27.972;2022-10-16T02:32:50;5.13;;;3.87;;
6031;SDS011;3044;43.232;27.972;2022-10-16T02:35:19;6.20;;;4.37;;
6031;SDS011;3044;43.232;27.972;2022-10-16T02:37:49;13.43;;;4.73;;
6031;SDS011;3044;43.232;27.972;2022-10-16T02:40:17;19.03;;;5.37;;
6031;SDS011;3044;43.232;27.972;2022-10-16T02:42:49;4.20;;;3.80;;
6031;SDS011;3044;43.232;27.972;2022-10-16T02:45:19;6.57;;;4.63;;
6031;SDS011;3044;43.232;27.972;2022-10-16T02:47:47;27.97;;;4.97;;
6031;SDS011;3044;43.232;27.972;2022-10-16T02:50:15;6.60;;;4.40;;
6031;SDS011;3044;43.232;27.972;2022-10-16T02:52:42;7.27;;;4.70;;
6031;SDS011;3044;43.232;27.972;2022-10-16T02:55:09;6.63;;;4.30;;
6031;SDS011;3044;43.232;27.972;2022-10-16T02:57:37;11.30;;;4.50;;
6031;SDS011;3044;43.232;27.972;2022-10-16T03:00:08;7.83;;;4.93;;
6031;SDS011;3044;43.232;27.972;2022-10-16T03:02:37;8.40;;;4.60;;
6031;SDS011;3044;43.232;27.972;2022-10-16T03:05:05;18.93;;;5.60;;
6031;SDS011;3044;43.232;27.972;2022-10-16T03:07:33;12.83;;;4.90;;
6031;SDS011;3044;43.232;27.972;2022-10-16T03:10:00;5.30;;;4.90;;
6031;SDS011;3044;43.232;27.972;2022-10-16T03:12:28;5.20;;;3.70;;
6031;SDS011;3044;43.232;27.972;2022-10-16T03:14:55;7.60;;;4.70;;
6031;SDS011;3044;43.232;27.972;2022-10-16T03:17:24;8.60;;;4.30;;
6031;SDS011;3044;43.232;27.972;2022-10-16T03:19:52;5.60;;;5.07;;
6031;SDS011;3044;43.232;27.972;2022-10-16T03:22:19;7.33;;;4.17;;
6031;SDS011;3044;43.232;27.972;2022-10-16T03:24:46;11.33;;;5.00;;
6031;SDS011;3044;43.232;27.972;2022-10-16T03:27:14;7.20;;;4.93;;
6031;SDS011;3044;43.232;27.972;2022-10-16T03:29:41;7.73;;;5.03;;
6031;SDS011;3044;43.232;27.972;2022-10-16T03:32:08;9.37;;;5.53;;
6031;SDS011;3044;43.232;27.972;2022-10-16T03:34:37;6.93;;;4.70;;
6031;SDS011;3044;43.232;27.972;2022-10-16T03:37:04;9.83;;;5.27;;
6031;SDS011;3044;43.232;27.972;2022-10-16T03:39:31;7.07;;;5.00;;
6031;SDS011;3044;43.232;27.972;2022-10-16T03:41:59;10.63;;;6.10;;
6031;SDS011;3044;43.232;27.972;2022-10-16T03:44:26;6.87;;;5.17;;
6031;SDS011;3044;43.232;27.972;2022-10-16T03:46:53;5.93;;;4.83;;
6031;SDS011;3044;43.232;27.972;2022-10-16T03:49:20;12.43;;;5.67;;
6031;SDS011;3044;43.232;27.972;2022-10-16T03:51:49;5.63;;;5.10;;
6031;SDS011;3044;43.232;27.972;2022-10-16T03:54:16;5.43;;;4.77;;
6031;SDS011;3044;43.232;27.972;2022-10-16T03:56:43;7.10;;;5.10;;
6031;SDS011;3044;43.232;27.972;2022-10-16T03:59:10;5.77;;;4.93;;
6031;SDS011;3044;43.232;27.972;2022-10-16T04:01:38;6.73;;;5.20;;
6031;SDS011;3044;43.232;27.972;2022-10-16T04:04:05;5.83;;;4.83;;
6031;SDS011;3044;43.232;27.972;2022-10-16T04:06:32;6.50;;;5.10;;
6031;SDS011;3044;43.232;27.972;2022-10-16T04:09:00;5.80;;;5.00;;
6031;SDS011;3044;43.232;27.972;2022-10-16T04:11:28;6.93;;;4.50;;
6031;SDS011;3044;43.232;27.972;2022-10-16T04:13:55;5.50;;;5.00;;
6031;SDS011;3044;43.232;27.972;2022-10-16T04:16:22;6.40;;;5.23;;
6031;SDS011;3044;43.232;27.972;2022-10-16T04:18:49;14.50;;;6.43;;
6031;SDS011;3044;43.232;27.972;2022-10-16T04:21:16;7.20;;;5.93;;
6031;SDS011;3044;43.232;27.972;2022-10-16T04:23:43;14.80;;;7.33;;
6031;SDS011;3044;43.232;27.972;2022-10-16T04:26:12;7.13;;;5.87;;
6031;SDS011;3044;43.232;27.972;2022-10-16T04:28:39;10.77;;;6.33;;
6031;SDS011;3044;43.232;27.972;2022-10-16T04:31:06;7.50;;;6.90;;
6031;SDS011;3044;43.232;27.972;2022-10-16T04:33:34;8.73;;;7.60;;
6031;SDS011;3044;43.232;27.972;2022-10-16T04:36:01;14.23;;;7.63;;
6031;SDS011;3044;43.232;27.972;2022-10-16T04:38:29;13.87;;;6.90;;
6031;SDS011;3044;43.232;27.972;2022-10-16T04:40:56;10.70;;;6.47;;
6031;SDS011;3044;43.232;27.972;2022-10-16T04:43:26;7.60;;;6.70;;
6031;SDS011;3044;43.232;27.972;2022-10-16T04:45:53;11.63;;;6.33;;
6031;SDS011;3044;43.232;27.972;2022-10-16T04:48:21;10.63;;;6.33;;
6031;SDS011;3044;43.232;27.972;2022-10-16T04:50:49;7.10;;;6.40;;
6031;SDS011;3044;43.232;27.972;2022-10-16T04:53:16;9.73;;;7.13;;
6031;SDS011;3044;43.232;27.972;2022-10-16T04:55:43;9.63;;;7.67;;
6031;SDS011;3044;43.232;27.972;2022-10-16T04:58:11;6.67;;;6.07;;
6031;SDS011;3044;43.232;27.972;2022-10-16T05:00:39;9.73;;;6.43;;
6031;SDS011;3044;43.232;27.972;2022-10-16T05:03:08;7.40;;;6.40;;
6031;SDS011;3044;43.232;27.972;2022-10-16T05:05:41;6.73;;;5.47;;
6031;SDS011;3044;43.232;27.972;2022-10-16T05:08:13;11.00;;;6.80;;
6031;SDS011;3044;43.232;27.972;2022-10-16T05:10:44;9.87;;;5.73;;
6031;SDS011;3044;43.232;27.972;2022-10-16T05:13:15;8.60;;;5.87;;
6031;SDS011;3044;43.232;27.972;2022-10-16T05:15:49;9.87;;;6.23;;
6031;SDS011;3044;43.232;27.972;2022-10-16T05:18:21;10.37;;;6.30;;
6031;SDS011;3044;43.232;27.972;2022-10-16T05:20:53;6.13;;;5.63;;
6031;SDS011;3044;43.232;27.972;2022-10-16T05:23:25;13.00;;;7.07;;
6031;SDS011;3044;43.232;27.972;2022-10-16T05:26:00;10.33;;;7.03;;
6031;SDS011;3044;43.232;27.972;2022-10-16T05:28:29;11.23;;;6.80;;
6031;SDS011;3044;43.232;27.972;2022-10-16T05:31:00;6.67;;;6.00;;
6031;SDS011;3044;43.232;27.972;2022-10-16T05:33:31;7.83;;;7.17;;
6031;SDS011;3044;43.232;27.972;2022-10-16T05:36:00;14.23;;;7.50;;
6031;SDS011;3044;43.232;27.972;2022-10-16T05:38:28;9.33;;;8.43;;
6031;SDS011;3044;43.232;27.972;2022-10-16T05:40:55;10.77;;;7.13;;
6031;SDS011;3044;43.232;27.972;2022-10-16T05:43:22;12.73;;;8.30;;
6031;SDS011;3044;43.232;27.972;2022-10-16T05:45:55;7.90;;;7.00;;
6031;SDS011;3044;43.232;27.972;2022-10-16T05:48:24;9.83;;;7.30;;
6031;SDS011;3044;43.232;27.972;2022-10-16T05:50:58;8.30;;;7.17;;
6031;SDS011;3044;43.232;27.972;2022-10-16T05:53:26;11.10;;;7.50;;
6031;SDS011;3044;43.232;27.972;2022-10-16T05:55:54;18.00;;;6.93;;
6031;SDS011;3044;43.232;27.972;2022-10-16T05:58:22;8.07;;;6.80;;
6031;SDS011;3044;43.232;27.972;2022-10-16T06:00:54;10.03;;;6.53;;
6031;SDS011;3044;43.232;27.972;2022-10-16T06:03:22;8.37;;;5.70;;
6031;SDS011;3044;43.232;27.972;2022-10-16T06:05:50;8.50;;;5.70;;
6031;SDS011;3044;43.232;27.972;2022-10-16T06:08:18;7.63;;;5.10;;
6031;SDS011;3044;43.232;27.972;2022-10-16T06:10:46;5.77;;;4.10;;
6031;SDS011;3044;43.232;27.972;2022-10-16T06:13:14;7.70;;;4.17;;
6031;SDS011;3044;43.232;27.972;2022-10-16T06:15:42;4.10;;;3.63;;
6031;SDS011;3044;43.232;27.972;2022-10-16T06:18:09;6.03;;;3.90;;
6031;SDS011;3044;43.232;27.972;2022-10-16T06:20:38;5.50;;;3.80;;
6031;SDS011;3044;43.232;27.972;2022-10-16T06:23:05;5.80;;;3.57;;
6031;SDS011;3044;43.232;27.972;2022-10-16T06:25:32;4.43;;;3.63;;
6031;SDS011;3044;43.232;27.972;2022-10-16T06:27:59;10.33;;;2.83;;
6031;SDS011;3044;43.232;27.972;2022-10-16T06:30:26;6.23;;;2.80;;
6031;SDS011;3044;43.232;27.972;2022-10-16T06:32:53;3.93;;;2.90;;
6031;SDS011;3044;43.232;27.972;2022-10-16T06:35:21;6.30;;;2.70;;
6031;SDS011;3044;43.232;27.972;2022-10-16T06:37:52;5.10;;;3.30;;
6031;SDS011;3044;43.232;27.972;2022-10-16T06:40:19;17.13;;;2.67;;
6031;SDS011;3044;43.232;27.972;2022-10-16T06:42:46;6.53;;;2.87;;
6031;SDS011;3044;43.232;27.972;2022-10-16T06:45:14;4.20;;;2.43;;
6031;SDS011;3044;43.232;27.972;2022-10-16T06:47:41;5.80;;;3.10;;
6031;SDS011;3044;43.232;27.972;2022-10-16T06:50:08;4.33;;;2.60;;
6031;SDS011;3044;43.232;27.972;2022-10-16T06:52:35;6.30;;;2.37;;
6031;SDS011;3044;43.232;27.972;2022-10-16T06:55:04;6.10;;;3.00;;
6031;SDS011;3044;43.232;27.972;2022-10-16T06:57:32;5.77;;;2.87;;
6031;SDS011;3044;43.232;27.972;2022-10-16T06:59:59;4.60;;;2.50;;
6031;SDS011;3044;43.232;27.972;2022-10-16T07:02:26;6.03;;;2.80;;
6031;SDS011;3044;43.232;27.972;2022-10-16T07:04:53;5.13;;;2.43;;
6031;SDS011;3044;43.232;27.972;2022-10-16T07:07:22;7.03;;;2.77;;
6031;SDS011;3044;43.232;27.972;2022-10-16T07:09:49;7.97;;;2.50;;
6031;SDS011;3044;43.232;27.972;2022-10-16T07:12:18;11.13;;;2.70;;
6031;SDS011;3044;43.232;27.972;2022-10-16T07:14:45;6.63;;;2.50;;
6031;SDS011;3044;43.232;27.972;2022-10-16T07:17:12;5.40;;;3.10;;
6031;SDS011;3044;43.232;27.972;2022-10-16T07:19:39;11.97;;;2.43;;
6031;SDS011;3044;43.232;27.972;2022-10-16T07:22:07;9.93;;;2.90;;
6031;SDS011;3044;43.232;27.972;2022-10-16T07:24:34;6.67;;;3.33;;
6031;SDS011;3044;43.232;27.972;2022-10-16T07:27:01;14.10;;;3.00;;
6031;SDS011;3044;43.232;27.972;2022-10-16T07:29:29;4.77;;;2.60;;
6031;SDS011;3044;43.232;27.972;2022-10-16T07:31:56;6.03;;;2.40;;
6031;SDS011;3044;43.232;27.972;2022-10-16T07:34:23;6.83;;;3.07;;
6031;SDS011;3044;43.232;27.972;2022-10-16T07:36:51;3.20;;;2.50;;
6031;SDS011;3044;43.232;27.972;2022-10-16T07:39:21;3.20;;;2.43;;
6031;SDS011;3044;43.232;27.972;2022-10-16T07:41:48;7.77;;;2.60;;
6031;SDS011;3044;43.232;27.972;2022-10-16T07:44:15;5.33;;;2.13;;
6031;SDS011;3044;43.232;27.972;2022-10-16T07:46:44;6.60;;;2.93;;
6031;SDS011;3044;43.232;27.972;2022-10-16T07:49:11;2.87;;;2.37;;
6031;SDS011;3044;43.232;27.972;2022-10-16T07:51:38;6.03;;;2.40;;
6031;SDS011;3044;43.232;27.972;2022-10-16T07:54:05;6.23;;;2.57;;
6031;SDS011;3044;43.232;27.972;2022-10-16T07:56:34;3.73;;;2.20;;
6031;SDS011;3044;43.232;27.972;2022-10-16T07:59:01;2.83;;;1.90;;
6031;SDS011;3044;43.232;27.972;2022-10-16T08:01:28;4.17;;;2.40;;
6031;SDS011;3044;43.232;27.972;2022-10-16T08:03:59;3.00;;;2.40;;
6031;SDS011;3044;43.232;27.972;2022-10-16T08:06:26;3.57;;;2.13;;
6031;SDS011;3044;43.232;27.972;2022-10-16T08:08:54;3.87;;;2.13;;
6031;SDS011;3044;43.232;27.972;2022-10-16T08:11:22;6.83;;;1.80;;
6031;SDS011;3044;43.232;27.972;2022-10-16T08:13:49;4.90;;;2.20;;
6031;SDS011;3044;43.232;27.972;2022-10-16T08:16:17;3.40;;;1.77;;
6031;SDS011;3044;43.232;27.972;2022-10-16T08:18:44;8.23;;;1.60;;
6031;SDS011;3044;43.232;27.972;2022-10-16T08:21:17;2.63;;;2.20;;
6031;SDS011;3044;43.232;27.972;2022-10-16T08:23:46;5.20;;;2.70;;
6031;SDS011;3044;43.232;27.972;2022-10-16T08:26:13;7.90;;;2.50;;
6031;SDS011;3044;43.232;27.972;2022-10-16T08:28:40;7.70;;;2.10;;
6031;SDS011;3044;43.232;27.972;2022-10-16T08:31:08;8.83;;;2.70;;
6031;SDS011;3044;43.232;27.972;2022-10-16T08:33:36;3.00;;;1.57;;
6031;SDS011;3044;43.232;27.972;2022-10-16T08:36:04;2.63;;;2.23;;
6031;SDS011;3044;43.232;27.972;2022-10-16T08:38:33;3.53;;;2.00;;
6031;SDS011;3044;43.232;27.972;2022-10-16T08:41:03;3.53;;;2.00;;
6031;SDS011;3044;43.232;27.972;2022-10-16T08:43:57;4.70;;;2.17;;
6031;SDS011;3044;43.232;27.972;2022-10-16T08:46:48;4.60;;;2.30;;
6031;SDS011;3044;43.232;27.972;2022-10-16T08:49:22;4.70;;;2.10;;
6031;SDS011;3044;43.232;27.972;2022-10-16T08:51:49;5.77;;;2.20;;
6031;SDS011;3044;43.232;27.972;2022-10-16T08:54:22;17.90;;;2.67;;
6031;SDS011;3044;43.232;27.972;2022-10-16T08:56:55;4.43;;;2.30;;
6031;SDS011;3044;43.232;27.972;2022-10-16T08:59:23;6.90;;;2.57;;
6031;SDS011;3044;43.232;27.972;2022-10-16T09:01:50;4.10;;;2.23;;
6031;SDS011;3044;43.232;27.972;2022-10-16T09:04:29;4.73;;;2.23;;
6031;SDS011;3044;43.232;27.972;2022-10-16T09:07:20;5.53;;;2.40;;
6031;SDS011;3044;43.232;27.972;2022-10-16T09:10:02;3.33;;;2.20;;
6031;SDS011;3044;43.232;27.972;2022-10-16T09:12:43;5.40;;;2.70;;
6031;SDS011;3044;43.232;27.972;2022-10-16T09:15:19;5.10;;;2.87;;
6031;SDS011;3044;43.232;27.972;2022-10-16T09:17:55;5.90;;;2.00;;
6031;SDS011;3044;43.232;27.972;2022-10-16T09:20:29;8.13;;;2.07;;
6031;SDS011;3044;43.232;27.972;2022-10-16T09:23:08;5.80;;;2.77;;
6031;SDS011;3044;43.232;27.972;2022-10-16T09:25:43;3.67;;;2.33;;
6031;SDS011;3044;43.232;27.972;2022-10-16T09:28:12;5.77;;;2.30;;
6031;SDS011;3044;43.232;27.972;2022-10-16T09:30:40;3.83;;;2.30;;
6031;SDS011;3044;43.232;27.972;2022-10-16T09:33:07;3.60;;;1.73;;
6031;SDS011;3044;43.232;27.972;2022-10-16T09:35:37;3.30;;;2.10;;
6031;SDS011;3044;43.232;27.972;2022-10-16T09:38:06;10.63;;;2.77;;
6031;SDS011;3044;43.232;27.972;2022-10-16T09:40:35;7.83;;;3.00;;
6031;SDS011;3044;43.232;27.972;2022-10-16T09:43:12;5.23;;;2.20;;
6031;SDS011;3044;43.232;27.972;2022-10-16T09:45:55;2.10;;;1.97;;
6031;SDS011;3044;43.232;27.972;2022-10-16T09:48:25;3.37;;;1.97;;
6031;SDS011;3044;43.232;27.972;2022-10-16T09:51:04;4.47;;;2.03;;
6031;SDS011;3044;43.232;27.972;2022-10-16T09:53:42;6.13;;;2.60;;
6031;SDS011;3044;43.232;27.972;2022-10-16T09:56:12;5.53;;;2.37;;
6031;SDS011;3044;43.232;27.972;2022-10-16T09:58:51;6.80;;;2.10;;
6031;SDS011;3044;43.232;27.972;2022-10-16T10:01:19;3.27;;;2.07;;
6031;SDS011;3044;43.232;27.972;2022-10-16T10:03:49;8.37;;;2.63;;
6031;SDS011;3044;43.232;27.972;2022-10-16T10:06:21;3.83;;;2.00;;
6031;SDS011;3044;43.232;27.972;2022-10-16T10:08:55;2.83;;;2.63;;
6031;SDS011;3044;43.232;27.972;2022-10-16T10:11:44;7.33;;;2.37;;
6031;SDS011;3044;43.232;27.972;2022-10-16T10:17:10;6.77;;;2.20;;
6031;SDS011;3044;43.232;27.972;2022-10-16T10:19:41;4.17;;;2.47;;
6031;SDS011;3044;43.232;27.972;2022-10-16T10:22:22;7.20;;;2.10;;
6031;SDS011;3044;43.232;27.972;2022-10-16T10:24:54;4.00;;;2.37;;
6031;SDS011;3044;43.232;27.972;2022-10-16T10:27:45;3.30;;;2.33;;
6031;SDS011;3044;43.232;27.972;2022-10-16T10:30:24;8.20;;;2.60;;
6031;SDS011;3044;43.232;27.972;2022-10-16T10:33:00;5.77;;;2.60;;
6031;SDS011;3044;43.232;27.972;2022-10-16T10:35:40;3.13;;;2.47;;
6031;SDS011;3044;43.232;27.972;2022-10-16T10:38:25;9.90;;;2.97;;
6031;SDS011;3044;43.232;27.972;2022-10-16T10:41:00;7.07;;;3.23;;
6031;SDS011;3044;43.232;27.972;2022-10-16T10:43:42;4.50;;;2.77;;
6031;SDS011;3044;43.232;27.972;2022-10-16T10:46:26;8.70;;;2.57;;
6031;SDS011;3044;43.232;27.972;2022-10-16T10:49:07;2.63;;;2.30;;
6031;SDS011;3044;43.232;27.972;2022-10-16T10:51:47;5.40;;;3.00;;
6031;SDS011;3044;43.232;27.972;2022-10-16T10:54:23;4.10;;;2.20;;
6031;SDS011;3044;43.232;27.972;2022-10-16T10:56:57;7.70;;;2.97;;
6031;SDS011;3044;43.232;27.972;2022-10-16T10:59:37;4.97;;;2.70;;
6031;SDS011;3044;43.232;27.972;2022-10-16T11:02:21;3.87;;;2.40;;
6031;SDS011;3044;43.232;27.972;2022-10-16T11:07:46;4.37;;;2.43;;
6031;SDS011;3044;43.232;27.972;2022-10-16T11:10:17;3.30;;;2.47;;
6031;SDS011;3044;43.232;27.972;2022-10-16T11:12:48;5.13;;;2.47;;
6031;SDS011;3044;43.232;27.972;2022-10-16T11:15:21;2.60;;;2.40;;
6031;SDS011;3044;43.232;27.972;2022-10-16T11:17:55;4.47;;;2.37;;
6031;SDS011;3044;43.232;27.972;2022-10-16T11:20:30;2.83;;;2.23;;
6031;SDS011;3044;43.232;27.972;2022-10-16T11:23:01;9.67;;;2.67;;
6031;SDS011;3044;43.232;27.972;2022-10-16T11:25:35;8.50;;;2.63;;
6031;SDS011;3044;43.232;27.972;2022-10-16T11:28:03;3.00;;;2.20;;
6031;SDS011;3044;43.232;27.972;2022-10-16T11:30:39;9.60;;;4.17;;
6031;SDS011;3044;43.232;27.972;2022-10-16T11:33:22;4.87;;;3.00;;
6031;SDS011;3044;43.232;27.972;2022-10-16T11:35:58;3.77;;;2.50;;
6031;SDS011;3044;43.232;27.972;2022-10-16T11:38:30;8.80;;;2.13;;
6031;SDS011;3044;43.232;27.972;2022-10-16T11:41:08;3.33;;;2.80;;
6031;SDS011;3044;43.232;27.972;2022-10-16T11:43:43;5.30;;;2.47;;
6031;SDS011;3044;43.232;27.972;2022-10-16T11:46:17;7.20;;;2.30;;
6031;SDS011;3044;43.232;27.972;2022-10-16T11:48:51;4.27;;;2.17;;
6031;SDS011;3044;43.232;27.972;2022-10-16T11:51:25;8.17;;;2.50;;
6031;SDS011;3044;43.232;27.972;2022-10-16T11:54:02;5.33;;;2.37;;
6031;SDS011;3044;43.232;27.972;2022-10-16T11:56:37;5.17;;;3.33;;
6031;SDS011;3044;43.232;27.972;2022-10-16T11:59:07;4.27;;;2.60;;
6031;SDS011;3044;43.232;27.972;2022-10-16T12:01:42;5.77;;;3.13;;
6031;SDS011;3044;43.232;27.972;2022-10-16T12:04:18;3.67;;;2.50;;
6031;SDS011;3044;43.232;27.972;2022-10-16T12:06:55;7.17;;;2.50;;
6031;SDS011;3044;43.232;27.972;2022-10-16T12:09:26;5.73;;;2.37;;
6031;SDS011;3044;43.232;27.972;2022-10-16T12:11:55;9.10;;;2.90;;
6031;SDS011;3044;43.232;27.972;2022-10-16T12:20:00;4.00;;;2.50;;
6031;SDS011;3044;43.232;27.972;2022-10-16T12:22:41;5.90;;;2.60;;
6031;SDS011;3044;43.232;27.972;2022-10-16T12:25:25;6.03;;;2.60;;
6031;SDS011;3044;43.232;27.972;2022-10-16T12:27:56;3.63;;;2.33;;
6031;SDS011;3044;43.232;27.972;2022-10-16T12:30:35;6.90;;;2.63;;
6031;SDS011;3044;43.232;27.972;2022-10-16T12:33:03;2.67;;;2.47;;
6031;SDS011;3044;43.232;27.972;2022-10-16T12:35:34;6.80;;;2.10;;
6031;SDS011;3044;43.232;27.972;2022-10-16T12:38:15;2.90;;;2.47;;
6031;SDS011;3044;43.232;27.972;2022-10-16T12:40:45;3.50;;;2.87;;
6031;SDS011;3044;43.232;27.972;2022-10-16T12:43:25;3.90;;;2.30;;
6031;SDS011;3044;43.232;27.972;2022-10-16T12:46:01;5.90;;;2.80;;
6031;SDS011;3044;43.232;27.972;2022-10-16T12:48:30;4.90;;;3.20;;
6031;SDS011;3044;43.232;27.972;2022-10-16T12:51:10;9.07;;;2.57;;
6031;SDS011;3044;43.232;27.972;2022-10-16T12:53:38;4.43;;;2.80;;
6031;SDS011;3044;43.232;27.972;2022-10-16T12:56:09;5.20;;;2.37;;
6031;SDS011;3044;43.232;27.972;2022-10-16T12:58:53;10.17;;;2.83;;
6031;SDS011;3044;43.232;27.972;2022-10-16T13:01:36;4.67;;;3.40;;
6031;SDS011;3044;43.232;27.972;2022-10-16T13:04:15;3.70;;;2.87;;
6031;SDS011;3044;43.232;27.972;2022-10-16T13:07:06;5.77;;;2.40;;
6031;SDS011;3044;43.232;27.972;2022-10-16T13:09:53;6.13;;;2.87;;
6031;SDS011;3044;43.232;27.972;2022-10-16T13:12:34;7.20;;;3.00;;
6031;SDS011;3044;43.232;27.972;2022-10-16T13:15:47;15.60;;;3.10;;
6031;SDS011;3044;43.232;27.972;2022-10-16T13:18:25;9.30;;;2.87;;
6031;SDS011;3044;43.232;27.972;2022-10-16T13:21:05;3.00;;;2.60;;
6031;SDS011;3044;43.232;27.972;2022-10-16T13:23:47;4.40;;;2.70;;
6031;SDS011;3044;43.232;27.972;2022-10-16T13:26:24;6.00;;;2.83;;
6031;SDS011;3044;43.232;27.972;2022-10-16T13:29:00;2.83;;;2.37;;
6031;SDS011;3044;43.232;27.972;2022-10-16T13:31:27;9.83;;;2.80;;
6031;SDS011;3044;43.232;27.972;2022-10-16T13:33:56;2.87;;;2.57;;
6031;SDS011;3044;43.232;27.972;2022-10-16T13:36:26;4.10;;;2.50;;
6031;SDS011;3044;43.232;27.972;2022-10-16T13:39:00;9.30;;;2.40;;
6031;SDS011;3044;43.232;27.972;2022-10-16T13:41:37;7.90;;;2.47;;
6031;SDS011;3044;43.232;27.972;2022-10-16T13:44:04;9.10;;;3.10;;
6031;SDS011;3044;43.232;27.972;2022-10-16T13:46:37;6.83;;;2.20;;
6031;SDS011;3044;43.232;27.972;2022-10-16T13:49:05;3.43;;;2.53;;
6031;SDS011;3044;43.232;27.972;2022-10-16T13:51:39;3.70;;;2.40;;
6031;SDS011;3044;43.232;27.972;2022-10-16T13:54:08;6.73;;;2.50;;
6031;SDS011;3044;43.232;27.972;2022-10-16T13:56:38;4.27;;;2.30;;
6031;SDS011;3044;43.232;27.972;2022-10-16T13:59:20;9.80;;;3.10;;
6031;SDS011;3044;43.232;27.972;2022-10-16T14:01:50;7.60;;;2.90;;
6031;SDS011;3044;43.232;27.972;2022-10-16T14:04:20;9.43;;;2.20;;
6031;SDS011;3044;43.232;27.972;2022-10-16T14:06:49;13.53;;;3.23;;
6031;SDS011;3044;43.232;27.972;2022-10-16T14:09:22;5.10;;;2.50;;
6031;SDS011;3044;43.232;27.972;2022-10-16T14:11:51;4.57;;;2.20;;
6031;SDS011;3044;43.232;27.972;2022-10-16T14:14:22;7.13;;;2.60;;
6031;SDS011;3044;43.232;27.972;2022-10-16T14:16:51;10.40;;;2.40;;
6031;SDS011;3044;43.232;27.972;2022-10-16T14:19:19;2.97;;;2.70;;
6031;SDS011;3044;43.232;27.972;2022-10-16T14:21:49;3.33;;;2.10;;
6031;SDS011;3044;43.232;27.972;2022-10-16T14:24:24;5.03;;;2.33;;
6031;SDS011;3044;43.232;27.972;2022-10-16T14:26:53;5.30;;;2.43;;
6031;SDS011;3044;43.232;27.972;2022-10-16T14:29:21;9.63;;;2.33;;
6031;SDS011;3044;43.232;27.972;2022-10-16T14:31:57;6.13;;;2.40;;
6031;SDS011;3044;43.232;27.972;2022-10-16T14:34:26;4.57;;;2.30;;
6031;SDS011;3044;43.232;27.972;2022-10-16T14:36:56;10.30;;;2.77;;
6031;SDS011;3044;43.232;27.972;2022-10-16T14:39:27;8.30;;;2.67;;
6031;SDS011;3044;43.232;27.972;2022-10-16T14:41:55;3.30;;;3.00;;
6031;SDS011;3044;43.232;27.972;2022-10-16T14:44:27;6.57;;;2.90;;
6031;SDS011;3044;43.232;27.972;2022-10-16T14:46:57;4.50;;;2.80;;
6031;SDS011;3044;43.232;27.972;2022-10-16T14:49:33;12.30;;;3.30;;
6031;SDS011;3044;43.232;27.972;2022-10-16T14:52:01;7.13;;;3.57;;
6031;SDS011;3044;43.232;27.972;2022-10-16T14:54:33;5.93;;;3.07;;
6031;SDS011;3044;43.232;27.972;2022-10-16T14:57:01;10.70;;;4.13;;
6031;SDS011;3044;43.232;27.972;2022-10-16T14:59:28;8.33;;;3.90;;
6031;SDS011;3044;43.232;27.972;2022-10-16T15:01:58;7.83;;;3.17;;
6031;SDS011;3044;43.232;27.972;2022-10-16T15:04:27;7.30;;;3.97;;
6031;SDS011;3044;43.232;27.972;2022-10-16T15:06:54;8.87;;;3.47;;
6031;SDS011;3044;43.232;27.972;2022-10-16T15:09:21;3.57;;;3.07;;
6031;SDS011;3044;43.232;27.972;2022-10-16T15:11:50;8.00;;;3.67;;
6031;SDS011;3044;43.232;27.972;2022-10-16T15:14:17;8.43;;;3.33;;
6031;SDS011;3044;43.232;27.972;2022-10-16T15:16:44;5.70;;;3.37;;
6031;SDS011;3044;43.232;27.972;2022-10-16T15:19:12;9.97;;;4.20;;
6031;SDS011;3044;43.232;27.972;2022-10-16T15:21:39;4.33;;;3.70;;
6031;SDS011;3044;43.232;27.972;2022-10-16T15:24:08;4.80;;;3.30;;
6031;SDS011;3044;43.232;27.972;2022-10-16T15:26:38;6.67;;;3.30;;
6031;SDS011;3044;43.232;27.972;2022-10-16T15:29:07;6.93;;;3.77;;
6031;SDS011;3044;43.232;27.972;2022-10-16T15:31:34;6.30;;;3.63;;
6031;SDS011;3044;43.232;27.972;2022-10-16T15:34:02;11.70;;;4.10;;
6031;SDS011;3044;43.232;27.972;2022-10-16T15:36:31;11.67;;;3.40;;